Time;durP1;ratioP1;P1;durP2;ratioP2;P2;SDS_P1;SDS_P2;PMS_P1;PMS_P2;Temp;Humidity;BMP_temperature;BMP_pressure;BME280_temperature;BME280_humidity;BME280_pressure;Samples;Min_cycle;Max_cycle;Signal;HPM_P1;HPM_P2
2023/08/04 00:00:30;;;;;;;7.10;5.57;;;;;;;33.90;nan;100674.22;143723;581;47002;-72
2023/08/04 00:02:57;;;;;;;6.72;5.40;;;;;;;33.89;nan;100680.91;143728;597;46008;-71
2023/08/04 00:05:24;;;;;;;6.75;4.95;;;;;;;33.84;nan;100682.78;143722;593;47928;-71
2023/08/04 00:07:50;;;;;;;7.55;5.47;;;;;;;33.79;nan;100677.50;143727;616;46006;-72
2023/08/04 00:10:18;;;;;;;7.70;5.53;;;;;;;33.72;nan;100675.31;143724;629;47002;-72
2023/08/04 00:12:44;;;;;;;6.80;5.50;;;;;;;33.70;nan;100679.66;143726;585;47008;-71
2023/08/04 00:15:10;;;;;;;5.32;4.82;;;;;;;33.64;nan;100676.31;143722;582;47004;-71
2023/08/04 00:17:38;;;;;;;9.82;5.35;;;;;;;33.59;nan;100673.78;143726;591;46002;-70
2023/08/04 00:20:08;;;;;;;7.47;5.65;;;;;;;33.60;nan;100681.00;143724;594;47002;-71
2023/08/04 00:22:35;;;;;;;9.13;4.97;;;;;;;33.59;nan;100684.13;143724;576;46010;-71
2023/08/04 00:25:02;;;;;;;5.87;5.10;;;;;;;33.61;nan;100685.38;143725;572;46008;-71
2023/08/04 00:27:28;;;;;;;8.27;5.30;;;;;;;33.57;nan;100676.12;143723;611;47004;-70
2023/08/04 00:29:55;;;;;;;6.47;5.55;;;;;;;33.56;nan;100682.88;143724;646;47003;-71
2023/08/04 00:32:22;;;;;;;7.68;5.30;;;;;;;33.59;nan;100678.56;143723;570;46010;-71
2023/08/04 00:34:48;;;;;;;5.50;4.87;;;;;;;33.58;nan;100677.75;143721;644;47004;-72
2023/08/04 00:37:15;;;;;;;7.95;5.72;;;;;;;33.52;nan;100679.19;143727;622;46006;-71
2023/08/04 00:39:41;;;;;;;8.93;6.10;;;;;;;33.54;nan;100676.84;143726;567;47004;-70
2023/08/04 00:42:07;;;;;;;9.93;6.15;;;;;;;33.51;nan;100678.38;143724;617;46924;-71
2023/08/04 00:44:34;;;;;;;9.90;5.78;;;;;;;33.49;nan;100677.13;143726;575;46009;-70
2023/08/04 00:47:00;;;;;;;6.47;4.82;;;;;;;33.47;nan;100673.88;143729;600;46006;-71
2023/08/04 00:49:27;;;;;;;8.43;5.55;;;;;;;33.48;nan;100678.28;143726;591;47000;-71
2023/08/04 00:51:54;;;;;;;6.12;5.53;;;;;;;33.46;nan;100670.28;143723;641;47010;-71
2023/08/04 00:54:22;;;;;;;8.63;6.07;;;;;;;33.40;nan;100669.72;143725;570;47002;-71
2023/08/04 00:56:50;;;;;;;8.55;5.37;;;;;;;33.43;nan;100667.41;143723;624;46017;-71
2023/08/04 00:59:17;;;;;;;9.18;5.22;;;;;;;33.43;nan;100665.44;143724;588;47004;-71
2023/08/04 01:01:43;;;;;;;7.18;4.97;;;;;;;33.47;nan;100663.53;143723;568;47011;-71
2023/08/04 01:04:10;;;;;;;7.80;4.87;;;;;;;33.49;nan;100664.00;143724;639;46008;-71
2023/08/04 01:07:00;;;;;;;4.45;4.05;;;;;;;33.46;nan;100658.34;143724;570;46007;-71
2023/08/04 01:10:05;;;;;;;5.97;4.75;;;;;;;33.48;nan;100670.72;143728;567;46010;-71
2023/08/04 01:12:57;;;;;;;5.70;4.62;;;;;;;33.47;nan;100660.75;143722;594;47010;-71
2023/08/04 01:15:27;;;;;;;7.18;4.22;;;;;;;33.46;nan;100656.34;143723;597;47004;-70
2023/08/04 01:17:55;;;;;;;7.30;5.50;;;;;;;33.44;nan;100652.31;143725;598;46006;-71
2023/08/04 01:20:23;;;;;;;6.65;5.00;;;;;;;33.45;nan;100648.38;143725;608;47006;-71
2023/08/04 01:22:50;;;;;;;5.18;4.68;;;;;;;33.45;nan;100657.50;143723;594;46010;-71
2023/08/04 01:25:17;;;;;;;8.93;4.30;;;;;;;33.47;nan;100654.37;143722;624;47002;-71
2023/08/04 01:27:48;;;;;;;6.47;4.62;;;;;;;33.46;nan;100658.34;143726;584;46006;-70
2023/08/04 01:30:19;;;;;;;5.70;4.57;;;;;;;33.46;nan;100661.13;143728;595;46004;-71
2023/08/04 01:32:49;;;;;;;7.32;4.78;;;;;;;33.51;nan;100663.66;143724;581;47008;-71
2023/08/04 01:35:16;;;;;;;6.18;4.97;;;;;;;33.48;nan;100662.38;143725;595;46008;-71
2023/08/04 01:37:43;;;;;;;6.93;4.70;;;;;;;33.44;nan;100657.87;143727;576;46000;-71
2023/08/04 01:40:14;;;;;;;12.68;5.03;;;;;;;33.30;nan;100664.66;143726;613;47000;-71
2023/08/04 01:42:41;;;;;;;7.75;4.57;;;;;;;33.27;nan;100659.78;143726;566;46008;-70
2023/08/04 01:45:08;;;;;;;9.73;4.68;;;;;;;33.22;nan;100662.81;143725;599;47005;-70
2023/08/04 01:47:38;;;;;;;8.30;4.80;;;;;;;33.23;nan;100667.22;143728;622;46006;-70
2023/08/04 01:50:09;;;;;;;10.05;5.28;;;;;;;33.23;nan;100661.66;143726;572;47000;-71
2023/08/04 01:52:36;;;;;;;7.87;4.87;;;;;;;33.21;nan;100669.56;143721;652;47008;-71
2023/08/04 01:55:02;;;;;;;8.30;4.93;;;;;;;33.17;nan;100675.03;143722;573;47004;-70
2023/08/04 01:57:35;;;;;;;5.63;5.03;;;;;;;33.07;nan;100670.78;143725;661;46006;-71
2023/08/04 02:00:02;;;;;;;5.75;4.90;;;;;;;33.05;nan;100675.09;143728;573;46004;-71
2023/08/04 02:02:29;;;;;;;6.78;4.95;;;;;;;33.11;nan;100673.66;143725;567;46010;-70
2023/08/04 02:04:56;;;;;;;6.90;5.93;;;;;;;33.04;nan;100679.03;143726;600;46008;-70
2023/08/04 02:07:25;;;;;;;6.15;4.62;;;;;;;32.99;nan;100680.09;143725;585;46007;-71
2023/08/04 02:09:55;;;;;;;8.90;5.10;;;;;;;33.01;nan;100674.97;143724;586;47002;-71
2023/08/04 02:12:22;;;;;;;8.13;4.62;;;;;;;32.95;nan;100684.75;143724;585;46010;-70
2023/08/04 02:14:48;;;;;;;7.20;4.62;;;;;;;32.99;nan;100688.44;143724;581;47004;-70
2023/08/04 02:17:16;;;;;;;7.28;4.93;;;;;;;33.02;nan;100686.94;143727;610;46006;-70
2023/08/04 02:19:42;;;;;;;7.80;5.03;;;;;;;32.99;nan;100685.66;143722;637;47002;-70
2023/08/04 02:22:08;;;;;;;7.55;5.20;;;;;;;32.89;nan;100681.41;143724;605;46010;-70
2023/08/04 02:24:34;;;;;;;11.20;6.80;;;;;;;32.94;nan;100685.91;143726;602;47008;-71
2023/08/04 02:27:01;;;;;;;11.00;5.10;;;;;;;32.89;nan;100686.97;143726;581;46926;-70
2023/08/04 02:29:27;;;;;;;8.48;5.45;;;;;;;32.92;nan;100691.00;143725;582;47004;-71
2023/08/04 02:31:54;;;;;;;6.93;5.10;;;;;;;32.97;nan;100696.34;143726;610;46008;-70
2023/08/04 02:34:20;;;;;;;6.87;4.80;;;;;;;32.98;nan;100686.00;143724;611;47002;-70
2023/08/04 02:36:47;;;;;;;9.23;4.80;;;;;;;32.96;nan;100694.72;143723;595;47007;-71
2023/08/04 02:39:13;;;;;;;5.95;4.57;;;;;;;32.96;nan;100686.38;143725;616;47004;-70
2023/08/04 02:41:39;;;;;;;7.72;4.62;;;;;;;32.91;nan;100689.41;143724;601;47010;-69
2023/08/04 02:44:06;;;;;;;5.32;4.82;;;;;;;32.90;nan;100691.37;143724;578;47002;-70
2023/08/04 02:46:32;;;;;;;6.57;4.40;;;;;;;32.95;nan;100695.88;143723;632;46926;-70
2023/08/04 02:48:59;;;;;;;6.32;4.05;;;;;;;32.96;nan;100698.28;143725;568;46009;-70
2023/08/04 02:51:25;;;;;;;8.95;4.80;;;;;;;32.91;nan;100700.53;143722;749;47002;-70
2023/08/04 02:53:51;;;;;;;5.53;4.62;;;;;;;32.84;nan;100700.28;143723;579;47002;-70
2023/08/04 02:56:18;;;;;;;7.00;4.55;;;;;;;32.85;nan;100701.91;143726;600;47006;-70
2023/08/04 02:58:46;;;;;;;8.52;5.22;;;;;;;32.90;nan;100707.25;143728;620;46010;-70
2023/08/04 03:01:13;;;;;;;8.38;5.43;;;;;;;32.86;nan;100717.44;143721;569;47004;-70
2023/08/04 03:03:40;;;;;;;5.80;5.03;;;;;;;32.76;nan;100721.50;143722;660;47002;-70
2023/08/04 03:06:06;;;;;;;5.40;4.90;;;;;;;32.71;nan;100722.56;143728;609;46006;-70
2023/08/04 03:08:33;;;;;;;7.53;4.93;;;;;;;32.79;nan;100724.41;143728;608;46006;-72
2023/08/04 03:10:59;;;;;;;7.30;5.00;;;;;;;32.82;nan;100725.69;143724;611;46010;-70
2023/08/04 03:13:26;;;;;;;9.25;5.22;;;;;;;32.75;nan;100723.47;143723;591;47002;-70
2023/08/04 03:16:00;;;;;;;9.60;5.87;;;;;;;32.73;nan;100725.78;143724;606;47006;-68
2023/08/04 03:18:27;;;;;;;8.10;5.72;;;;;;;32.75;nan;100719.88;143726;608;47004;-69
2023/08/04 03:20:54;;;;;;;8.10;5.30;;;;;;;32.65;nan;100730.31;143725;575;46010;-67
2023/08/04 03:23:22;;;;;;;7.60;4.80;;;;;;;32.66;nan;100731.94;143725;579;47004;-70
2023/08/04 03:25:49;;;;;;;8.23;4.85;;;;;;;32.64;nan;100730.69;143727;574;46006;-70
2023/08/04 03:28:16;;;;;;;8.38;4.90;;;;;;;32.67;nan;100735.53;143726;608;47000;-70
2023/08/04 03:30:43;;;;;;;7.18;4.90;;;;;;;32.70;nan;100728.47;143724;587;47004;-70
2023/08/04 03:33:09;;;;;;;6.10;4.68;;;;;;;32.69;nan;100733.22;143725;599;47002;-70
2023/08/04 03:35:35;;;;;;;10.07;5.28;;;;;;;32.67;nan;100732.75;143724;581;46006;-70
2023/08/04 03:38:03;;;;;;;10.85;4.87;;;;;;;32.65;nan;100735.87;143727;573;46004;-70
2023/08/04 03:40:29;;;;;;;6.05;4.72;;;;;;;32.66;nan;100734.72;143726;597;46026;-71
2023/08/04 03:42:56;;;;;;;7.28;4.80;;;;;;;32.63;nan;100737.41;143725;570;47003;-70
2023/08/04 03:45:22;;;;;;;7.05;4.72;;;;;;;32.63;nan;100738.22;143727;567;46006;-70
2023/08/04 03:47:48;;;;;;;8.65;4.90;;;;;;;32.65;nan;100735.09;143728;574;47004;-70
2023/08/04 03:50:15;;;;;;;7.55;4.78;;;;;;;32.64;nan;100737.03;143725;600;46010;-70
2023/08/04 03:52:41;;;;;;;8.52;4.65;;;;;;;32.60;nan;100736.13;143724;567;47004;-71
2023/08/04 03:55:08;;;;;;;5.90;4.82;;;;;;;32.57;nan;100741.56;143727;595;46006;-71
2023/08/04 03:57:34;;;;;;;10.02;5.00;;;;;;;32.56;nan;100738.00;143726;599;47004;-70
2023/08/04 04:00:01;;;;;;;10.25;4.97;;;;;;;32.48;nan;100741.69;143726;567;46008;-70
2023/08/04 04:02:28;;;;;;;12.90;5.40;;;;;;;32.49;nan;100746.09;143724;586;46928;-70
2023/08/04 04:04:54;;;;;;;12.27;5.90;;;;;;;32.44;nan;100751.87;143727;585;46007;-70
2023/08/04 04:07:20;;;;;;;7.07;5.20;;;;;;;32.48;nan;100744.47;143728;614;47002;-70
2023/08/04 04:09:47;;;;;;;7.12;5.53;;;;;;;32.54;nan;100750.59;143725;627;46008;-70
2023/08/04 04:12:13;;;;;;;11.30;5.32;;;;;;;32.54;nan;100747.81;143724;584;47002;-70
2023/08/04 04:14:40;;;;;;;7.12;5.07;;;;;;;32.58;nan;100755.13;143726;585;46006;-70
2023/08/04 04:17:06;;;;;;;7.70;5.55;;;;;;;32.59;nan;100756.75;143726;579;47004;-70
2023/08/04 04:19:32;;;;;;;16.67;5.60;;;;;;;32.56;nan;100745.50;143726;608;46008;-70
2023/08/04 04:21:59;;;;;;;10.02;6.12;;;;;;;32.57;nan;100755.47;143725;589;47002;-70
2023/08/04 04:24:25;;;;;;;7.05;5.80;;;;;;;32.52;nan;100759.31;143725;568;46006;-70
2023/08/04 04:26:51;;;;;;;8.82;5.47;;;;;;;32.60;nan;100758.34;143727;566;47000;-70
2023/08/04 04:29:18;;;;;;;9.15;5.22;;;;;;;32.65;nan;100762.91;143725;599;46011;-71
2023/08/04 04:31:44;;;;;;;11.23;5.55;;;;;;;32.70;nan;100753.50;143725;600;46013;-70
2023/08/04 04:34:10;;;;;;;9.25;5.57;;;;;;;32.69;nan;100755.47;143724;590;49012;-70
2023/08/04 04:36:36;;;;;;;9.60;5.85;;;;;;;32.79;nan;100756.94;143729;572;46002;-70
2023/08/04 04:39:03;;;;;;;10.23;6.07;;;;;;;32.82;nan;100764.62;143725;611;47010;-70
2023/08/04 04:41:30;;;;;;;9.65;5.60;;;;;;;32.86;nan;100762.78;143723;596;47002;-70
2023/08/04 04:43:57;;;;;;;11.63;5.80;;;;;;;32.89;nan;100764.88;143725;567;46006;-70
2023/08/04 04:46:23;;;;;;;5.20;4.68;;;;;;;32.89;nan;100756.53;143729;600;46010;-70
2023/08/04 04:48:49;;;;;;;9.43;5.18;;;;;;;32.92;nan;100769.69;143728;611;46008;-70
2023/08/04 04:51:16;;;;;;;7.80;5.65;;;;;;;32.98;nan;100766.69;143725;567;47002;-70
2023/08/04 04:53:42;;;;;;;7.70;5.30;;;;;;;33.04;nan;100763.31;143727;583;46926;-70
2023/08/04 04:56:10;;;;;;;14.02;5.95;;;;;;;33.12;nan;100775.47;143728;629;46006;-69
2023/08/04 04:58:36;;;;;;;15.23;5.95;;;;;;;33.21;nan;100773.38;143727;584;46009;-69
2023/08/04 05:01:04;;;;;;;13.00;6.32;;;;;;;33.19;nan;100766.50;143728;568;46012;-70
2023/08/04 05:03:30;;;;;;;11.00;6.10;;;;;;;33.17;nan;100772.44;143727;684;46006;-70
2023/08/04 05:05:57;;;;;;;12.93;5.97;;;;;;;33.20;nan;100770.91;143728;638;47000;-70
2023/08/04 05:08:23;;;;;;;9.57;5.60;;;;;;;33.30;nan;100772.37;143726;671;46010;-69
2023/08/04 05:10:53;;;;;;;7.25;5.10;;;;;;;33.36;nan;100769.03;143725;593;47002;-70
2023/08/04 05:13:19;;;;;;;9.48;5.57;;;;;;;33.40;nan;100774.72;143724;624;46926;-70
2023/08/04 05:15:49;;;;;;;9.82;5.93;;;;;;;33.46;nan;100776.06;143728;601;47000;-71
2023/08/04 05:18:16;;;;;;;7.95;5.95;;;;;;;33.45;nan;100774.44;143729;592;46008;-70
2023/08/04 05:20:47;;;;;;;9.40;6.12;;;;;;;33.55;nan;100771.16;143725;604;47004;-69
2023/08/04 05:23:13;;;;;;;14.87;6.00;;;;;;;33.51;nan;100775.81;143727;618;47002;-71
2023/08/04 05:25:41;;;;;;;9.70;6.78;;;;;;;33.66;nan;100779.81;143733;622;46002;-70
2023/08/04 05:28:32;;;;;;;10.77;6.55;;;;;;;33.64;nan;100784.12;143726;582;46010;-69
2023/08/04 05:31:01;;;;;;;8.35;6.18;;;;;;;33.72;nan;100789.53;143724;628;47927;-71
2023/08/04 05:33:29;;;;;;;9.18;6.30;;;;;;;33.78;nan;100783.72;143729;579;46006;-71
2023/08/04 05:35:56;;;;;;;11.80;6.32;;;;;;;33.85;nan;100784.72;143725;578;47002;-70
2023/08/04 05:38:23;;;;;;;11.77;6.43;;;;;;;33.88;nan;100786.00;143727;586;46008;-71
2023/08/04 05:40:50;;;;;;;7.87;6.10;;;;;;;33.92;nan;100777.75;143729;614;46006;-70
2023/08/04 05:43:17;;;;;;;9.25;6.18;;;;;;;33.95;nan;100790.97;143727;585;46004;-70
2023/08/04 05:45:50;;;;;;;9.35;6.05;;;;;;;33.99;nan;100783.50;143728;628;47002;-70
2023/08/04 05:48:16;;;;;;;;;;;;;;;33.97;nan;100786.66;143729;984;47012;-71
2023/08/04 05:50:42;;;;;;;12.65;6.85;;;;;;;34.03;nan;100781.62;143733;611;47004;-70
2023/08/04 05:53:09;;;;;;;13.43;6.18;;;;;;;34.14;nan;100779.94;143729;592;46008;-70
2023/08/04 05:55:39;;;;;;;11.27;6.43;;;;;;;34.19;nan;100778.03;143730;556;46008;-70
2023/08/04 05:58:05;;;;;;;12.52;6.37;;;;;;;34.25;nan;100776.59;143726;603;46011;-71
2023/08/04 06:00:32;;;;;;;9.98;6.65;;;;;;;34.23;nan;100782.53;143724;581;47006;-72
2023/08/04 06:02:59;;;;;;;16.73;15.13;;;;;;;34.27;nan;100783.41;143724;574;46008;-71
2023/08/04 06:05:26;;;;;;;11.55;7.50;;;;;;;34.42;nan;100784.62;143725;606;47012;-70
2023/08/04 06:07:53;;;;;;;12.50;6.87;;;;;;;34.51;nan;100781.66;143725;581;47012;-70
2023/08/04 06:10:19;;;;;;;9.73;7.97;;;;;;;34.60;nan;100787.03;143724;610;47006;-70
2023/08/04 06:12:46;;;;;;;7.07;6.35;;;;;;;34.64;nan;100785.16;143728;612;46009;-72
2023/08/04 06:15:13;;;;;;;11.32;6.12;;;;;;;34.61;nan;100788.66;143728;572;47006;-71
2023/08/04 06:17:39;;;;;;;9.75;6.72;;;;;;;34.55;nan;100790.91;143729;619;46010;-73
2023/08/04 06:20:07;;;;;;;7.47;6.37;;;;;;;34.63;nan;100777.94;143726;612;47004;-70
2023/08/04 06:22:34;;;;;;;7.57;5.32;;;;;;;34.64;nan;100787.09;143729;587;46008;-71
2023/08/04 06:25:01;;;;;;;7.72;5.22;;;;;;;34.65;nan;100792.34;143728;569;47002;-65
2023/08/04 06:27:28;;;;;;;7.30;6.55;;;;;;;34.68;nan;100785.22;143726;635;46926;-65
2023/08/04 06:29:54;;;;;;;15.27;13.13;;;;;;;34.74;nan;100786.56;143725;579;47006;-66
2023/08/04 06:32:20;;;;;;;24.87;22.37;;;;;;;34.83;nan;100792.75;143726;593;46924;-67
2023/08/04 06:34:47;;;;;;;10.75;6.43;;;;;;;34.82;nan;100788.34;143726;584;47002;-66
2023/08/04 06:37:13;;;;;;;8.30;5.95;;;;;;;34.76;nan;100785.03;143726;569;47012;-67
2023/08/04 06:39:39;;;;;;;7.12;5.30;;;;;;;34.71;nan;100790.06;143727;569;46004;-67
2023/08/04 06:42:06;;;;;;;6.75;5.68;;;;;;;34.53;nan;100784.88;143727;631;46006;-66
2023/08/04 06:44:33;;;;;;;9.27;4.70;;;;;;;34.50;nan;100780.03;143730;632;46006;-66
2023/08/04 06:46:59;;;;;;;6.25;4.75;;;;;;;34.72;nan;100786.91;143727;568;46025;-66
2023/08/04 06:49:25;;;;;;;7.45;6.28;;;;;;;34.82;nan;100790.34;143724;603;47004;-66
2023/08/04 06:51:52;;;;;;;6.28;5.25;;;;;;;34.86;nan;100786.44;143728;640;46006;-66
2023/08/04 06:54:19;;;;;;;6.53;5.57;;;;;;;34.84;nan;100785.19;143725;583;47002;-67
2023/08/04 06:56:45;;;;;;;6.70;5.30;;;;;;;34.75;nan;100779.81;143729;584;46008;-67
2023/08/04 06:59:12;;;;;;;7.43;5.43;;;;;;;34.71;nan;100776.94;143726;595;47002;-66
2023/08/04 07:01:38;;;;;;;6.70;5.22;;;;;;;34.88;nan;100780.47;143727;604;46006;-66
2023/08/04 07:04:04;;;;;;;6.32;5.43;;;;;;;35.03;nan;100773.28;143729;641;47000;-66
2023/08/04 07:06:31;;;;;;;5.40;4.90;;;;;;;35.16;nan;100779.53;143728;683;46011;-66
2023/08/04 07:08:57;;;;;;;4.68;4.12;;;;;;;35.14;nan;100784.69;143725;619;47002;-66
2023/08/04 07:11:23;;;;;;;8.02;4.10;;;;;;;35.07;nan;100774.16;143728;629;46926;-67
2023/08/04 07:13:50;;;;;;;7.07;5.12;;;;;;;35.15;nan;100775.91;143727;639;47000;-67
2023/08/04 07:16:17;;;;;;;6.80;5.12;;;;;;;35.13;nan;100774.69;143725;573;47008;-66
2023/08/04 07:18:43;;;;;;;5.70;4.80;;;;;;;34.99;nan;100778.78;143724;632;47002;-67
2023/08/04 07:21:12;;;;;;;8.10;4.55;;;;;;;35.06;nan;100778.94;143720;587;48006;-65
2023/08/04 07:23:39;;;;;;;4.60;4.00;;;;;;;35.16;nan;100773.94;143730;567;46006;-66
2023/08/04 07:26:08;;;;;;;5.47;3.90;;;;;;;35.12;nan;100767.47;143722;606;47010;-67
2023/08/04 07:28:36;;;;;;;5.50;3.70;;;;;;;35.14;nan;100768.72;143727;647;46004;-66
2023/08/04 07:31:07;;;;;;;4.68;3.92;;;;;;;35.26;nan;100766.97;143728;568;46004;-67
2023/08/04 07:33:34;;;;;;;6.03;4.72;;;;;;;35.19;nan;100768.44;143727;594;47002;-67
2023/08/04 07:36:01;;;;;;;7.37;4.53;;;;;;;35.14;nan;100763.13;143722;616;47924;-67
2023/08/04 07:38:30;;;;;;;7.75;5.20;;;;;;;35.19;nan;100753.69;143727;624;47002;-73
2023/08/04 07:40:57;;;;;;;6.12;4.70;;;;;;;35.16;nan;100758.00;143726;616;48006;-67
2023/08/04 07:43:24;;;;;;;6.80;4.62;;;;;;;35.27;nan;100758.22;143727;845;47006;-67
2023/08/04 07:45:53;;;;;;;5.37;4.87;;;;;;;35.41;nan;100751.31;143727;580;46010;-66
2023/08/04 07:48:19;;;;;;;4.87;3.97;;;;;;;35.52;nan;100755.16;143725;569;46008;-66
2023/08/04 07:50:47;;;;;;;5.43;4.30;;;;;;;35.62;nan;100760.13;143728;621;46006;-66
2023/08/04 07:53:15;;;;;;;5.68;4.15;;;;;;;35.76;nan;100753.19;143726;613;47002;-67
2023/08/04 07:55:42;;;;;;;4.90;4.05;;;;;;;35.59;nan;100749.69;143725;592;46009;-67
2023/08/04 07:58:09;;;;;;;6.07;4.75;;;;;;;35.72;nan;100752.34;143729;586;46008;-66
2023/08/04 08:00:36;;;;;;;5.60;4.32;;;;;;;35.72;nan;100761.50;143727;711;46006;-66
2023/08/04 08:03:03;;;;;;;5.07;3.60;;;;;;;35.63;nan;100750.56;143728;621;47007;-66
2023/08/04 08:05:30;;;;;;;4.85;3.87;;;;;;;35.64;nan;100759.78;143725;691;46008;-68
2023/08/04 08:07:57;;;;;;;6.30;4.20;;;;;;;35.72;nan;100750.34;143725;737;47008;-67
2023/08/04 08:10:24;;;;;;;5.28;4.78;;;;;;;35.73;nan;100751.94;143728;678;46004;-67
2023/08/04 08:12:51;;;;;;;4.72;4.00;;;;;;;35.84;nan;100752.16;143729;629;47000;-67
2023/08/04 08:15:18;;;;;;;4.43;3.75;;;;;;;35.95;nan;100750.38;143728;613;46008;-67
2023/08/04 08:17:44;;;;;;;4.65;3.70;;;;;;;36.06;nan;100746.97;143724;620;47002;-66
2023/08/04 08:20:11;;;;;;;4.75;3.37;;;;;;;35.99;nan;100744.88;143723;613;48020;-66
2023/08/04 08:22:38;;;;;;;4.30;3.40;;;;;;;36.09;nan;100752.63;143730;623;46004;-65
2023/08/04 08:25:06;;;;;;;4.30;3.85;;;;;;;36.12;nan;100748.25;143726;569;47010;-67
2023/08/04 08:27:33;;;;;;;5.15;3.55;;;;;;;36.26;nan;100759.69;143727;569;46004;-66
2023/08/04 08:29:59;;;;;;;4.57;3.85;;;;;;;36.22;nan;100752.41;143725;729;46006;-67
2023/08/04 08:32:27;;;;;;;3.95;3.53;;;;;;;36.19;nan;100751.19;143728;583;47004;-66
2023/08/04 08:34:53;;;;;;;4.62;3.78;;;;;;;36.23;nan;100763.25;143726;628;46010;-72
2023/08/04 08:37:20;;;;;;;4.72;3.80;;;;;;;36.05;nan;100753.75;143726;660;46008;-67
2023/08/04 08:39:46;;;;;;;7.15;4.45;;;;;;;36.16;nan;100756.72;143725;611;46007;-66
2023/08/04 08:42:13;;;;;;;5.05;3.83;;;;;;;36.22;nan;100758.81;143729;629;47000;-66
2023/08/04 08:44:40;;;;;;;5.55;3.97;;;;;;;36.19;nan;100761.53;143723;598;46008;-66
2023/08/04 08:47:08;;;;;;;5.32;4.32;;;;;;;36.05;nan;100751.75;143726;597;46013;-66
2023/08/04 08:49:44;;;;;;;4.78;4.15;;;;;;;35.83;nan;100758.91;143727;627;46006;-67
2023/08/04 08:52:12;;;;;;;6.35;4.32;;;;;;;35.81;nan;100758.47;143728;620;47004;-67
2023/08/04 08:54:39;;;;;;;6.05;4.07;;;;;;;35.84;nan;100768.91;143722;585;50008;-67
2023/08/04 08:57:07;;;;;;;6.28;4.15;;;;;;;35.93;nan;100760.28;143730;600;46012;-67
2023/08/04 08:59:34;;;;;;;5.93;4.62;;;;;;;35.87;nan;100762.59;143727;592;46006;-66
2023/08/04 09:02:04;;;;;;;4.90;3.95;;;;;;;35.70;nan;100754.69;143726;593;47000;-66
2023/08/04 09:04:36;;;;;;;5.05;4.43;;;;;;;36.04;nan;100758.50;143725;591;47004;-66
2023/08/04 09:07:04;;;;;;;6.53;5.00;;;;;;;35.92;nan;100745.50;143725;612;47002;-66
2023/08/04 09:09:30;;;;;;;8.98;5.40;;;;;;;35.95;nan;100746.78;143726;690;46010;-67
2023/08/04 09:11:57;;;;;;;8.82;4.37;;;;;;;36.20;nan;100750.00;143725;670;47002;-66
2023/08/04 09:14:24;;;;;;;5.18;4.53;;;;;;;36.33;nan;100745.03;143725;586;46010;-67
2023/08/04 09:16:51;;;;;;;4.90;4.40;;;;;;;36.46;nan;100740.03;143726;632;46028;-66
2023/08/04 09:19:17;;;;;;;6.78;4.75;;;;;;;36.64;nan;100739.47;143728;585;46007;-67
2023/08/04 09:21:44;;;;;;;6.10;4.60;;;;;;;36.70;nan;100737.97;143729;773;46002;-66
2023/08/04 09:24:13;;;;;;;5.18;4.45;;;;;;;36.65;nan;100741.09;143725;572;49008;-68
2023/08/04 09:26:46;;;;;;;4.95;4.28;;;;;;;36.78;nan;100731.31;143727;574;46004;-66
2023/08/04 09:29:14;;;;;;;7.57;4.97;;;;;;;37.13;nan;100729.38;143731;633;46006;-67
2023/08/04 09:31:43;;;;;;;5.80;4.93;;;;;;;36.76;nan;100730.88;143729;566;47000;-66
2023/08/04 09:34:11;;;;;;;6.82;4.40;;;;;;;36.62;nan;100730.69;143725;573;47002;-65
2023/08/04 09:36:48;;;;;;;5.32;4.57;;;;;;;37.02;nan;100740.44;143727;594;46008;-65
2023/08/04 09:39:17;;;;;;;5.22;4.53;;;;;;;37.24;nan;100721.91;143729;636;46006;-65
2023/08/04 09:41:46;;;;;;;7.68;5.60;;;;;;;37.60;nan;100725.09;143730;765;46007;-67
2023/08/04 09:44:14;;;;;;;7.20;4.93;;;;;;;37.86;nan;100722.56;143727;581;47002;-65
2023/08/04 09:46:49;;;;;;;7.28;4.95;;;;;;;37.73;nan;100731.22;143727;590;47002;-66
2023/08/04 09:49:16;;;;;;;5.07;4.55;;;;;;;37.60;nan;100722.28;143725;594;46006;-66
2023/08/04 09:51:44;;;;;;;5.97;4.78;;;;;;;37.54;nan;100725.84;143730;584;46006;-66
2023/08/04 09:54:11;;;;;;;7.85;5.00;;;;;;;37.49;nan;100715.00;143727;569;46008;-67
2023/08/04 09:56:37;;;;;;;6.00;4.70;;;;;;;37.86;nan;100714.16;143729;573;46004;-67
2023/08/04 09:59:05;;;;;;;6.72;4.40;;;;;;;37.92;nan;100721.84;143724;608;47006;-68
2023/08/04 10:01:32;;;;;;;5.10;4.47;;;;;;;38.06;nan;100709.91;143729;579;46004;-66
2023/08/04 10:03:58;;;;;;;8.27;4.57;;;;;;;38.38;nan;100714.19;143724;570;46924;-67
2023/08/04 10:06:25;;;;;;;6.47;5.22;;;;;;;38.38;nan;100721.81;143724;607;47002;-66
2023/08/04 10:08:55;;;;;;;6.32;5.72;;;;;;;38.42;nan;100711.37;143726;615;46006;-66
2023/08/04 10:11:22;;;;;;;6.18;4.60;;;;;;;38.58;nan;100711.87;143725;605;47000;-67
2023/08/04 10:13:56;;;;;;;6.25;4.40;;;;;;;38.72;nan;100713.19;143724;591;46010;-66
2023/08/04 10:16:31;;;;;;;6.25;4.40;;;;;;;38.78;nan;100715.22;143722;608;47004;-67
2023/08/04 10:19:02;;;;;;;7.47;4.80;;;;;;;38.88;nan;100710.88;143726;664;46007;-66
2023/08/04 10:21:39;;;;;;;5.68;4.20;;;;;;;38.95;nan;100710.09;143725;607;47002;-67
2023/08/04 10:24:09;;;;;;;5.37;4.30;;;;;;;39.05;nan;100711.34;143725;627;47002;-66
2023/08/04 10:26:53;;;;;;;5.18;4.35;;;;;;;38.92;nan;100708.06;143724;620;46004;-66
2023/08/04 10:29:20;;;;;;;4.90;4.37;;;;;;;38.67;nan;100703.09;143726;572;46006;-67
2023/08/04 10:31:59;;;;;;;4.70;4.10;;;;;;;38.84;nan;100707.25;143723;631;47002;-66
2023/08/04 10:34:35;;;;;;;9.38;5.00;;;;;;;39.00;nan;100700.47;143726;586;46004;-67
2023/08/04 10:37:14;;;;;;;6.10;4.20;;;;;;;39.04;nan;100698.50;143723;567;47004;-67
2023/08/04 10:39:46;;;;;;;5.53;4.15;;;;;;;39.01;nan;100691.66;143724;608;46007;-67
2023/08/04 10:42:22;;;;;;;5.57;4.62;;;;;;;39.09;nan;100695.31;143726;565;47000;-66
2023/08/04 10:45:05;;;;;;;4.18;3.42;;;;;;;39.03;nan;100697.69;143728;594;46008;-67
2023/08/04 10:47:44;;;;;;;8.18;4.57;;;;;;;38.83;nan;100697.22;143724;595;47002;-66
2023/08/04 10:50:11;;;;;;;4.80;3.62;;;;;;;38.78;nan;100689.94;143726;631;46006;-66
2023/08/04 10:52:38;;;;;;;4.68;4.18;;;;;;;38.78;nan;100689.13;143727;598;47000;-67
2023/08/04 10:55:09;;;;;;;8.18;4.32;;;;;;;38.77;nan;100682.72;143720;597;47008;-67
2023/08/04 10:57:37;;;;;;;5.12;3.67;;;;;;;38.78;nan;100684.34;143722;567;47002;-67
2023/08/04 11:00:09;;;;;;;5.07;4.35;;;;;;;38.59;nan;100676.22;143725;643;46006;-66
2023/08/04 11:02:37;;;;;;;5.25;4.40;;;;;;;38.75;nan;100675.88;143728;589;46007;-69
2023/08/04 11:05:09;;;;;;;4.35;3.83;;;;;;;38.74;nan;100671.50;143726;678;46008;-66
2023/08/04 11:07:36;;;;;;;5.83;3.90;;;;;;;38.83;nan;100671.94;143726;613;46008;-67
2023/08/04 11:10:06;;;;;;;5.78;4.65;;;;;;;38.75;nan;100673.06;143727;697;47000;-67
2023/08/04 11:12:33;;;;;;;6.20;3.78;;;;;;;38.82;nan;100670.31;143727;592;47002;-67
2023/08/04 11:15:00;;;;;;;4.60;4.03;;;;;;;38.52;nan;100662.97;143724;641;47010;-66
2023/08/04 11:17:27;;;;;;;6.45;4.15;;;;;;;38.30;nan;100673.25;143727;600;46008;-67
2023/08/04 11:19:53;;;;;;;5.72;4.12;;;;;;;38.13;nan;100669.09;143726;572;46006;-66
2023/08/04 11:22:24;;;;;;;4.75;4.22;;;;;;;38.43;nan;100659.69;143727;593;47004;-66
2023/08/04 11:24:52;;;;;;;6.53;4.43;;;;;;;38.34;nan;100654.41;143725;586;47009;-66
2023/08/04 11:27:19;;;;;;;6.95;3.72;;;;;;;38.40;nan;100661.28;143723;569;46004;-67
2023/08/04 11:29:51;;;;;;;5.37;4.43;;;;;;;38.40;nan;100658.50;143729;624;46006;-67
2023/08/04 11:32:23;;;;;;;4.55;4.10;;;;;;;38.54;nan;100651.34;143724;584;47002;-64
2023/08/04 11:34:49;;;;;;;4.43;3.75;;;;;;;38.57;nan;100651.34;143724;613;46010;-64
2023/08/04 11:37:16;;;;;;;6.25;3.60;;;;;;;38.56;nan;100652.56;143724;650;47002;-64
2023/08/04 11:39:43;;;;;;;4.87;4.10;;;;;;;38.81;nan;100657.47;143725;591;46006;-64
2023/08/04 11:42:18;;;;;;;5.47;3.67;;;;;;;38.67;nan;100663.81;143727;569;46007;-64
2023/08/04 11:44:45;;;;;;;4.47;4.07;;;;;;;38.45;nan;100651.69;143726;602;46008;-64